Time;durP1;ratioP1;P1;durP2;ratioP2;P2;SDS_P1;SDS_P2;PMS_P1;PMS_P2;Temp;Humidity;BMP_temperature;BMP_pressure;BME280_temperature;BME280_humidity;BME280_pressure;Samples;Min_cycle;Max_cycle;Signal;HPM_P1;HPM_P2
2021/09/27 00:02:08;;;;;;;10.90;8.80;;;;;;;17.21;90.15;100453.11;2852659;81;20995;-77
2021/09/27 00:06:12;;;;;;;10.98;8.68;;;;;;;17.19;90.38;100452.44;2848541;82;21019;-81
2021/09/27 00:10:19;;;;;;;13.68;9.35;;;;;;;17.17;90.56;100454.45;2848925;82;20995;-78
2021/09/27 00:14:21;;;;;;;11.03;8.80;;;;;;;17.16;90.72;100454.13;2824351;82;20996;-79
2021/09/27 00:18:23;;;;;;;10.50;8.95;;;;;;;17.13;90.97;100449.08;2828302;82;21085;-77
2021/09/27 00:22:24;;;;;;;11.48;8.85;;;;;;;17.10;90.69;100452.10;2845446;82;21006;-74
2021/09/27 00:26:28;;;;;;;11.03;9.25;;;;;;;17.06;91.18;100447.55;2845512;82;20944;-77
2021/09/27 00:30:31;;;;;;;18.90;10.65;;;;;;;17.06;91.38;100448.03;2835623;82;21940;-77
2021/09/27 01:16:09;;;;;;;13.22;11.57;;;;;;;16.95;90.22;100442.44;2829609;82;21115;-62
2021/09/27 01:20:43;;;;;;;14.90;11.03;;;;;;;16.88;90.38;100434.70;2959962;80;21458;-63
2021/09/27 01:30:31;;;;;;;13.60;11.55;;;;;;;16.75;91.18;100424.43;2960106;80;20979;-61
2021/09/27 01:34:38;;;;;;;14.95;12.03;;;;;;;16.64;92.01;100419.68;2958902;80;20960;-62
2021/09/27 01:39:23;;;;;;;16.17;11.70;;;;;;;16.62;92.45;100414.16;2960205;80;20972;-62
2021/09/27 01:43:30;;;;;;;16.37;11.60;;;;;;;16.61;92.71;100415.98;2960029;80;21480;-64
2021/09/27 01:47:54;;;;;;;14.50;12.80;;;;;;;16.59;92.67;100426.53;2947586;80;20975;-64
2021/09/27 01:52:27;;;;;;;13.08;11.10;;;;;;;16.51;93.33;100418.80;2950947;79;21003;-62
2021/09/27 02:02:00;;;;;;;16.00;11.70;;;;;;;16.54;94.05;100418.47;2935389;80;20960;-62
2021/09/27 02:06:31;;;;;;;16.25;12.00;;;;;;;16.54;94.37;100425.70;2899262;81;20972;-62
2021/09/27 02:10:41;;;;;;;15.32;11.63;;;;;;;16.57;94.60;100414.63;2845013;83;20935;-63
2021/09/27 02:14:54;;;;;;;14.75;10.95;;;;;;;16.61;94.46;100413.30;2901981;79;20988;-64
2021/09/27 02:19:40;;;;;;;13.05;11.05;;;;;;;16.63;94.39;100415.83;2936691;80;20976;-62
2021/09/27 02:23:58;;;;;;;15.30;11.57;;;;;;;16.60;94.47;100412.11;2944379;80;20992;-63
2021/09/27 02:28:18;;;;;;;15.20;11.03;;;;;;;16.55;94.67;100408.59;2969002;79;20979;-65
2021/09/27 02:33:04;;;;;;;15.78;12.82;;;;;;;16.51;94.82;100405.38;2969995;80;20971;-63
2021/09/27 02:37:50;;;;;;;20.37;13.63;;;;;;;16.49;95.04;100410.06;2970085;80;21007;-63
2021/09/27 02:42:07;;;;;;;15.13;11.75;;;;;;;16.45;95.51;100406.52;2969994;80;21053;-62
2021/09/27 02:46:08;;;;;;;18.98;14.47;;;;;;;16.42;95.94;100405.02;2932979;81;20948;-63
2021/09/27 02:50:29;;;;;;;15.43;11.97;;;;;;;16.39;96.25;100399.45;2969362;80;21026;-62
2021/09/27 02:55:05;;;;;;;14.58;13.03;;;;;;;16.37;96.53;100400.13;2960663;80;20959;-64
2021/09/27 02:59:38;;;;;;;17.30;13.85;;;;;;;16.35;96.75;100398.10;2970014;80;20944;-63
2021/09/27 03:04:34;;;;;;;17.00;12.90;;;;;;;16.33;96.84;100400.11;2969296;80;20975;-63
2021/09/27 03:08:47;;;;;;;23.55;14.25;;;;;;;16.31;96.95;100401.26;2960624;79;20956;-63
2021/09/27 03:13:22;;;;;;;14.33;12.78;;;;;;;16.28;96.97;100399.73;2974973;78;21003;-63
2021/09/27 03:27:42;;;;;;;18.70;14.80;;;;;;;16.07;97.93;100396.11;2958253;80;20944;-62
2021/09/27 03:32:12;;;;;;;19.77;16.00;;;;;;;16.05;98.17;100390.89;2888016;80;20981;-62
2021/09/27 03:36:36;;;;;;;25.68;14.65;;;;;;;16.04;98.05;100393.23;2944972;80;20981;-64
2021/09/27 03:41:16;;;;;;;19.73;15.50;;;;;;;16.01;98.12;100394.05;2945096;80;21029;-63
2021/09/27 03:45:46;;;;;;;19.65;15.15;;;;;;;15.99;98.20;100395.56;2945015;81;21025;-64
2021/09/27 03:50:17;;;;;;;21.07;15.25;;;;;;;16.02;98.16;100387.70;2945128;81;21001;-63
2021/09/27 03:54:42;;;;;;;18.48;15.25;;;;;;;16.04;98.13;100390.55;2945031;81;20946;-62
2021/09/27 03:58:54;;;;;;;20.37;15.72;;;;;;;16.05;97.61;100397.60;2934940;80;21075;-62
2021/09/27 04:03:27;;;;;;;18.87;13.70;;;;;;;16.05;97.23;100396.27;2914030;81;20990;-64
2021/09/27 04:08:08;;;;;;;23.35;16.27;;;;;;;16.07;97.58;100395.59;2911430;82;20985;-65
2021/09/27 04:12:47;;;;;;;19.77;14.70;;;;;;;16.03;96.82;100398.27;2933452;80;20976;-64
2021/09/27 04:17:14;;;;;;;19.23;15.28;;;;;;;15.91;97.77;100403.55;2966382;80;20940;-63
2021/09/27 04:21:21;;;;;;;;;;;;;;;15.85;98.28;100403.16;2947358;80;20996;-63
2021/09/27 04:31:24;;;;;;;27.17;17.57;;;;;;;15.90;98.54;100405.41;2937540;81;20982;-65
2021/09/27 04:35:58;;;;;;;23.70;18.00;;;;;;;15.98;98.57;100409.98;2928350;81;20956;-66
2021/09/27 04:40:01;;;;;;;26.62;20.15;;;;;;;16.04;98.49;100414.70;2925331;81;21003;-63
2021/09/27 04:44:16;;;;;;;29.50;18.75;;;;;;;16.09;98.21;100402.98;2948429;80;21015;-63
2021/09/27 04:48:56;;;;;;;24.47;18.75;;;;;;;16.13;98.43;100400.34;2947771;80;20979;-64
2021/09/27 04:53:41;;;;;;;24.85;18.48;;;;;;;16.13;98.59;100408.88;2948576;81;21023;-63
2021/09/27 04:58:07;;;;;;;24.85;20.08;;;;;;;16.13;98.82;100411.08;2948471;81;20960;-63
2021/09/27 05:02:47;;;;;;;22.55;19.52;;;;;;;16.08;99.11;100420.09;2948314;80;20925;-62
2021/09/27 05:07:12;;;;;;;23.62;19.82;;;;;;;16.04;99.58;100413.36;2948189;81;21023;-63
2021/09/27 05:11:52;;;;;;;32.28;22.82;;;;;;;16.03;100.00;100409.52;2948005;80;20968;-63
2021/09/27 05:16:12;;;;;;;35.45;22.73;;;;;;;16.05;100.00;100409.67;2948604;81;20952;-65
2021/09/27 05:20:58;;;;;;;35.60;25.43;;;;;;;16.08;100.00;100412.03;2932957;80;21032;-63
2021/09/27 05:25:23;;;;;;;39.78;27.27;;;;;;;16.13;100.00;100419.13;2923784;81;20996;-63
2021/09/27 05:29:49;;;;;;;38.78;26.60;;;;;;;16.20;100.00;100423.85;2913120;79;20961;-63
2021/09/27 05:34:22;;;;;;;37.10;25.93;;;;;;;16.16;100.00;100431.89;2873852;83;20985;-63
2021/09/27 05:44:15;;;;;;;47.35;32.03;;;;;;;16.16;100.00;100435.91;2908799;81;20945;-64
2021/09/27 05:48:33;;;;;;;42.90;29.23;;;;;;;16.10;100.00;100438.20;2847158;83;20935;-63
2021/09/27 05:52:45;;;;;;;43.20;33.25;;;;;;;16.17;100.00;100438.94;2897007;82;20970;-62
2021/09/27 05:57:13;;;;;;;48.23;34.10;;;;;;;16.17;100.00;100449.67;2905164;82;20969;-63
2021/09/27 06:02:02;;;;;;;45.10;32.30;;;;;;;16.21;100.00;100441.64;2859886;80;20992;-63
2021/09/27 06:17:09;;;;;;;49.80;34.55;;;;;;;16.19;100.00;100443.64;2846776;83;20950;-63
2021/09/27 06:26:09;;;;;;;56.37;37.88;;;;;;;16.27;100.00;100442.33;2920826;81;20994;-65
2021/09/27 06:35:18;;;;;;;59.27;39.75;;;;;;;16.35;100.00;100437.52;2915804;81;20987;-62
2021/09/27 06:39:28;;;;;;;53.80;37.45;;;;;;;16.31;100.00;100428.10;2890888;81;20967;-63
2021/09/27 06:43:31;;;;;;;49.00;36.28;;;;;;;16.42;100.00;100433.20;2915884;81;20979;-62
2021/09/27 06:47:33;;;;;;;45.83;30.60;;;;;;;16.46;100.00;100427.84;2915773;81;20975;-63
2021/09/27 06:51:41;;;;;;;44.03;34.33;;;;;;;16.59;100.00;100423.36;2928811;79;20965;-63
2021/09/27 06:55:43;;;;;;;49.67;35.68;;;;;;;16.66;100.00;100423.05;2967298;80;20962;-63
2021/09/27 06:59:45;;;;;;;43.33;32.42;;;;;;;16.70;100.00;100427.11;2967402;80;20982;-62
2021/09/27 07:03:47;;;;;;;54.85;39.73;;;;;;;16.67;100.00;100432.78;2966289;80;20971;-62
2021/09/27 07:07:49;;;;;;;45.48;33.42;;;;;;;16.71;100.00;100440.02;2925881;77;20975;-62
2021/09/27 07:12:01;;;;;;;49.85;34.90;;;;;;;16.69;100.00;100443.38;2916743;80;20969;-63
2021/09/27 07:16:04;;;;;;;58.92;41.13;;;;;;;16.65;100.00;100441.50;2951322;80;20952;-62
2021/09/27 07:20:11;;;;;;;54.67;39.10;;;;;;;16.65;100.00;100441.50;2961805;80;21083;-63
2021/09/27 07:24:15;;;;;;;49.95;36.17;;;;;;;16.83;100.00;100443.25;2947377;80;20979;-63
2021/09/27 07:28:23;;;;;;;53.35;37.03;;;;;;;16.96;100.00;100432.03;2968135;79;20928;-63
2021/09/27 07:32:27;;;;;;;44.00;32.65;;;;;;;17.06;100.00;100434.60;2868956;81;20993;-62
2021/09/27 07:36:31;;;;;;;48.48;33.83;;;;;;;17.15;100.00;100432.28;2839211;84;20969;-62
2021/09/27 07:40:38;;;;;;;56.70;37.33;;;;;;;17.25;100.00;100428.92;2872614;82;20986;-63
2021/09/27 07:44:44;;;;;;;57.08;33.48;;;;;;;17.29;99.90;100429.44;2892266;80;20925;-63
2021/09/27 07:48:50;;;;;;;42.05;31.90;;;;;;;17.34;100.00;100427.60;2883901;81;20963;-63
2021/09/27 07:52:52;;;;;;;47.35;33.50;;;;;;;17.41;99.75;100431.29;2855832;81;20963;-62
2021/09/27 07:56:54;;;;;;;60.70;42.60;;;;;;;17.52;99.95;100429.63;2859470;83;20979;-63
2021/09/27 08:00:56;;;;;;;49.40;35.08;;;;;;;17.64;100.00;100426.58;2865342;82;20992;-63
2021/09/27 08:04:59;;;;;;;48.95;32.90;;;;;;;17.78;99.96;100425.91;2927557;81;20941;-62
2021/09/27 08:09:03;;;;;;;43.58;30.85;;;;;;;17.91;98.66;100435.31;2904239;82;20948;-63
2021/09/27 08:13:06;;;;;;;46.68;34.05;;;;;;;18.01;97.93;100437.30;2917615;81;20968;-62
2021/09/27 08:17:08;;;;;;;43.13;30.97;;;;;;;18.01;97.68;100432.44;2902462;79;21039;-64
2021/09/27 08:21:39;;;;;;;52.10;35.63;;;;;;;18.05;97.52;100434.63;2893184;81;21007;-63
2021/09/27 08:25:41;;;;;;;48.80;33.80;;;;;;;18.17;97.28;100431.59;2851581;80;20984;-63
2021/09/27 08:29:46;;;;;;;48.28;32.65;;;;;;;18.19;96.17;100438.49;2860408;80;30931;-62
2021/09/27 08:33:52;;;;;;;51.90;37.00;;;;;;;18.20;96.33;100436.13;2836853;82;20947;-66
2021/09/27 08:38:23;;;;;;;44.23;33.38;;;;;;;18.24;96.76;100449.58;2824212;82;21049;-65
2021/09/27 08:42:37;;;;;;;51.18;37.70;;;;;;;18.35;96.40;100447.02;2827711;81;21008;-65
2021/09/27 08:47:08;;;;;;;50.43;34.75;;;;;;;18.48;96.26;100442.95;2823874;84;20945;-62
2021/09/27 08:51:09;;;;;;;49.48;32.28;;;;;;;18.62;95.60;100443.55;2823528;84;21021;-62
2021/09/27 08:55:29;;;;;;;41.42;30.50;;;;;;;18.74;94.81;100441.82;2786937;85;21498;-63
2021/09/27 08:59:59;;;;;;;41.18;30.90;;;;;;;18.87;94.06;100439.90;2749870;86;20992;-61
2021/09/27 09:04:26;;;;;;;47.90;31.95;;;;;;;18.95;94.16;100440.69;2798406;85;21035;-62
2021/09/27 09:08:54;;;;;;;37.33;28.62;;;;;;;19.04;93.83;100431.23;2704045;87;21689;-62
2021/09/27 09:12:59;;;;;;;37.25;28.98;;;;;;;19.12;93.43;100431.19;2803977;83;21098;-65
2021/09/27 09:17:40;;;;;;;49.60;34.95;;;;;;;19.16;92.97;100433.86;2778229;83;21015;-63
2021/09/27 09:22:00;;;;;;;42.80;30.05;;;;;;;19.24;93.31;100431.62;2792795;84;20989;-62
2021/09/27 09:26:12;;;;;;;47.48;31.68;;;;;;;19.28;92.44;100430.23;2843935;83;21453;-64
2021/09/27 09:30:14;;;;;;;37.13;28.05;;;;;;;19.23;92.62;100437.50;2842467;82;20953;-63
2021/09/27 09:34:27;;;;;;;45.28;33.25;;;;;;;19.35;92.75;100434.41;2788187;85;21056;-62
2021/09/27 09:38:32;;;;;;;41.95;30.17;;;;;;;19.37;92.60;100432.36;2825382;84;21052;-64
2021/09/27 09:42:39;;;;;;;41.20;28.98;;;;;;;19.51;92.18;100432.08;2833085;83;20979;-62
2021/09/27 09:46:41;;;;;;;51.50;32.33;;;;;;;19.66;92.19;100425.39;2837879;82;20949;-63
2021/09/27 09:50:58;;;;;;;48.98;33.55;;;;;;;19.86;91.41;100423.52;2838003;82;20980;-62
2021/09/27 09:55:09;;;;;;;53.28;34.90;;;;;;;19.93;89.68;100419.09;2802923;84;20985;-62
2021/09/27 09:59:57;;;;;;;50.33;31.82;;;;;;;20.05;90.51;100424.38;2821442;84;20954;-63
2021/09/27 10:04:37;;;;;;;;;;;;;;;20.22;90.11;100416.92;2752450;85;21009;-64
2021/09/27 10:08:52;;;;;;;49.98;31.77;;;;;;;20.38;89.58;100423.98;2825454;81;20070;-63
2021/09/27 10:12:52;;;;;;;52.70;35.45;;;;;;;20.43;88.35;100419.38;2842909;83;20968;-62
2021/09/27 10:17:08;;;;;;;52.05;36.23;;;;;;;20.48;88.38;100412.89;2799653;85;20996;-63
2021/09/27 10:21:52;;;;;;;49.08;36.00;;;;;;;20.58;88.66;100418.00;2873753;82;20945;-63
2021/09/27 10:25:54;;;;;;;55.92;36.40;;;;;;;20.59;87.80;100412.91;2879118;82;20953;-65
2021/09/27 10:30:00;;;;;;;56.75;35.60;;;;;;;20.62;87.83;100417.94;2871212;82;21040;-64
2021/09/27 10:34:15;;;;;;;50.65;37.73;;;;;;;20.65;88.68;100412.68;2900814;82;20952;-62
2021/09/27 10:39:02;;;;;;;48.85;35.73;;;;;;;20.87;87.50;100412.75;2904988;80;20980;-65
2021/09/27 10:43:02;;;;;;;56.83;37.73;;;;;;;20.94;86.76;100408.27;2868237;79;21555;-63
2021/09/27 10:47:20;;;;;;;45.83;36.73;;;;;;;21.00;87.50;100406.64;2875198;80;20924;-62
2021/09/27 10:51:26;;;;;;;49.88;36.95;;;;;;;21.07;86.20;100401.63;2880106;82;20932;-63
2021/09/27 10:55:58;;;;;;;49.08;37.42;;;;;;;21.15;85.82;100402.56;2855598;80;21003;-64
2021/09/27 11:00:07;;;;;;;54.33;39.85;;;;;;;21.30;86.32;100403.84;2855456;81;21027;-63
2021/09/27 11:09:12;;;;;;;53.90;39.42;;;;;;;21.65;83.71;100403.96;2791949;84;21017;-66
2021/09/27 11:13:38;;;;;;;52.17;37.63;;;;;;;21.73;83.83;100405.69;2797687;84;21019;-62
2021/09/27 11:17:47;;;;;;;49.50;36.10;;;;;;;21.80;83.65;100397.91;2812594;84;21067;-62
2021/09/27 11:21:55;;;;;;;42.67;33.13;;;;;;;21.72;82.89;100394.55;2841645;83;20980;-62
2021/09/27 11:26:26;;;;;;;42.85;32.95;;;;;;;21.71;84.21;100388.28;2842628;83;21036;-63
2021/09/27 11:40:33;;;;;;;55.83;37.35;;;;;;;21.74;83.77;100389.23;2852838;82;20968;-62
2021/09/27 11:44:36;;;;;;;48.83;35.33;;;;;;;21.77;83.69;100380.71;2805891;83;21071;-62
2021/09/27 11:48:48;;;;;;;50.88;34.73;;;;;;;21.92;84.23;100375.20;2819586;82;20960;-64
2021/09/27 11:53:06;;;;;;;52.20;35.95;;;;;;;21.97;82.77;100381.36;2829711;83;21063;-63
2021/09/27 12:02:31;;;;;;;49.67;35.28;;;;;;;22.11;82.32;100377.70;2799661;83;21003;-62
2021/09/27 12:06:55;;;;;;;46.92;35.90;;;;;;;22.28;82.65;100370.59;2745838;84;20988;-63
2021/09/27 12:11:05;;;;;;;48.63;32.73;;;;;;;22.35;81.54;100357.91;2856355;80;20989;-63
2021/09/27 12:15:08;;;;;;;47.90;34.20;;;;;;;22.34;81.81;100363.55;2863681;83;21011;-63
2021/09/27 12:19:50;;;;;;;45.33;33.50;;;;;;;22.43;81.85;100361.50;2832542;82;21032;-64
2021/09/27 12:24:19;;;;;;;44.25;34.53;;;;;;;22.53;81.08;100359.25;2857196;82;21022;-65
2021/09/27 12:28:31;;;;;;;48.13;36.08;;;;;;;22.61;81.62;100348.25;2840092;81;21058;-63
2021/09/27 12:32:46;;;;;;;44.53;32.95;;;;;;;22.77;80.66;100338.89;2863851;81;21097;-63
2021/09/27 12:36:50;;;;;;;44.00;33.30;;;;;;;22.83;80.39;100338.06;2858608;82;21003;-66
2021/09/27 12:41:02;;;;;;;38.90;30.00;;;;;;;22.80;80.66;100338.48;2858081;81;20976;-63
2021/09/27 12:54:58;;;;;;;52.38;32.88;;;;;;;22.87;80.68;100337.14;2945738;79;20131;-62
2021/09/27 12:59:06;;;;;;;48.73;31.25;;;;;;;22.83;79.99;100341.31;2958678;80;21571;-63
2021/09/27 13:03:11;;;;;;;38.13;30.00;;;;;;;22.67;80.51;100340.64;2961358;80;20954;-64
2021/09/27 13:07:55;;;;;;;44.03;28.98;;;;;;;22.64;81.22;100338.34;2965422;78;20955;-67
2021/09/27 13:12:53;;;;;;;42.93;29.60;;;;;;;22.71;80.66;100337.02;2964698;79;21338;-65
2021/09/27 13:17:15;;;;;;;38.70;29.67;;;;;;;22.77;80.56;100333.98;2945434;80;20952;-65
2021/09/27 15:24:29;;;;;;;45.58;30.92;;;;;;;21.40;83.29;100317.75;2898820;80;21063;-64
2021/09/27 15:28:30;;;;;;;48.23;33.45;;;;;;;21.29;83.87;100325.89;2901855;82;20933;-65
2021/09/27 15:32:33;;;;;;;45.80;34.18;;;;;;;21.17;84.50;100335.05;2891351;82;20987;-62
2021/09/27 15:36:59;;;;;;;62.08;38.30;;;;;;;21.07;84.72;100334.56;2852131;83;21019;-64
2021/09/27 15:41:02;;;;;;;78.45;49.98;;;;;;;21.00;85.68;100334.99;2852430;83;21929;-64
2021/09/27 15:45:05;;;;;;;79.95;49.25;;;;;;;20.91;85.42;100336.98;2882550;79;21070;-62
2021/09/27 15:49:07;;;;;;;61.02;42.03;;;;;;;20.85;85.67;100338.63;2864516;80;21339;-62
2021/09/27 16:01:52;;;;;;;47.48;32.23;;;;;;;20.66;86.11;100335.98;2938479;80;21066;-64
2021/09/27 16:05:52;;;;;;;50.45;32.90;;;;;;;20.51;86.63;100338.73;2936791;78;20968;-62
2021/09/27 16:10:07;;;;;;;47.73;32.63;;;;;;;20.33;87.36;100347.23;2935989;79;21093;-62
2021/09/27 16:14:08;;;;;;;53.87;35.98;;;;;;;20.20;87.87;100343.85;2933996;80;20975;-62
2021/09/27 16:19:07;;;;;;;43.95;32.70;;;;;;;20.18;88.54;100348.61;2919466;80;21018;-63
2021/09/27 16:23:08;;;;;;;49.63;33.38;;;;;;;20.21;88.39;100348.23;2916099;78;21011;-62
2021/09/27 16:27:10;;;;;;;59.15;38.23;;;;;;;20.03;88.16;100357.55;2916167;81;21066;-63
2021/09/27 16:36:27;;;;;;;57.73;36.55;;;;;;;19.74;89.12;100373.18;2909676;81;20962;-64
2021/09/27 16:40:29;;;;;;;57.17;35.50;;;;;;;19.60;90.00;100364.91;2915998;78;21038;-64
2021/09/27 16:44:37;;;;;;;48.17;38.10;;;;;;;19.58;90.41;100371.00;2950249;80;21018;-63
2021/09/27 16:48:52;;;;;;;59.27;37.75;;;;;;;19.49;90.42;100374.28;2934929;80;21031;-65
2021/09/27 16:53:13;;;;;;;61.25;41.08;;;;;;;19.32;90.79;100374.09;2967879;77;21054;-66
2021/09/27 16:57:16;;;;;;;57.50;42.17;;;;;;;19.23;91.28;100372.79;2927585;80;20955;-64
2021/09/27 17:02:17;;;;;;;56.30;37.05;;;;;;;19.13;91.81;100377.60;2973734;79;20931;-63
2021/09/27 17:06:19;;;;;;;62.23;41.20;;;;;;;19.06;92.20;100384.22;3012604;78;21057;-64
2021/09/27 17:10:21;;;;;;;55.20;36.68;;;;;;;18.99;92.16;100379.22;2987613;79;21010;-63
2021/09/27 17:18:53;;;;;;;62.33;41.85;;;;;;;18.78;92.20;100373.08;2997394;78;20967;-64
2021/09/27 17:23:01;;;;;;;60.85;38.95;;;;;;;18.78;93.51;100377.13;2966070;80;20979;-61
2021/09/27 17:27:29;;;;;;;61.10;41.58;;;;;;;18.74;92.33;100380.67;2967699;80;21002;-62
2021/09/27 17:31:47;;;;;;;63.58;39.30;;;;;;;18.73;92.41;100384.91;2964497;79;21010;-64
2021/09/27 17:35:54;;;;;;;71.42;48.28;;;;;;;18.79;91.47;100390.44;2964853;80;21026;-62
2021/09/27 17:40:06;;;;;;;69.55;46.05;;;;;;;18.85;91.91;100386.16;2966476;77;21002;-62
2021/09/27 17:44:10;;;;;;;58.13;42.93;;;;;;;18.94;92.12;100389.16;2948529;77;21030;-62
2021/09/27 17:48:12;;;;;;;81.57;45.63;;;;;;;18.96;91.71;100377.69;2962942;77;20982;-64
2021/09/27 17:52:16;;;;;;;62.17;40.65;;;;;;;18.97;91.73;100385.27;2955131;80;21026;-62
2021/09/27 17:56:18;;;;;;;61.35;40.55;;;;;;;18.94;90.43;100395.89;2925637;78;21022;-62
2021/09/27 18:00:20;;;;;;;79.07;47.33;;;;;;;18.98;90.05;100409.37;2922628;79;21034;-63
2021/09/27 18:04:21;;;;;;;70.50;47.03;;;;;;;18.97;89.52;100403.62;2929412;81;21038;-62
2021/09/27 18:08:31;;;;;;;81.00;51.63;;;;;;;18.96;89.69;100404.63;2929352;81;20943;-63
2021/09/27 18:12:50;;;;;;;74.53;50.12;;;;;;;18.86;89.61;100397.27;2939181;80;20975;-64
2021/09/27 18:16:55;;;;;;;61.05;44.33;;;;;;;18.68;91.14;100401.10;2954152;80;21002;-65
2021/09/27 18:21:57;;;;;;;64.37;44.10;;;;;;;18.62;92.02;100403.13;2981267;80;20954;-65
2021/09/27 18:25:59;;;;;;;78.50;55.55;;;;;;;18.46;92.58;100403.20;2931475;80;20986;-64
2021/09/27 18:30:03;;;;;;;72.37;47.95;;;;;;;18.24;93.01;100409.68;2928774;78;21022;-62
2021/09/27 18:34:11;;;;;;;68.62;46.10;;;;;;;18.22;93.20;100411.71;2963604;80;21002;-63
2021/09/27 18:38:16;;;;;;;59.23;40.88;;;;;;;18.19;94.11;100405.33;2960750;80;20995;-65
2021/09/27 18:42:20;;;;;;;71.40;44.27;;;;;;;18.21;93.68;100400.61;2970903;78;21002;-63
2021/09/27 18:46:47;;;;;;;60.33;40.73;;;;;;;18.19;94.41;100403.98;3036453;77;20982;-63
2021/09/27 18:50:53;;;;;;;68.70;47.90;;;;;;;18.03;94.12;100398.16;3027257;78;20970;-65
2021/09/27 18:55:09;;;;;;;67.85;45.30;;;;;;;17.75;95.80;100395.31;2982913;80;20976;-63
2021/09/27 18:59:12;;;;;;;71.70;45.23;;;;;;;17.58;97.35;100387.75;2981836;78;20985;-62
2021/09/27 19:03:15;;;;;;;69.05;45.20;;;;;;;17.63;98.09;100400.20;2953690;80;20948;-62
2021/09/27 19:07:17;;;;;;;67.50;46.85;;;;;;;17.74;97.54;100407.58;2954418;80;21018;-63
2021/09/27 19:11:46;;;;;;;70.95;44.83;;;;;;;17.80;96.38;100414.47;2952663;80;20998;-62
2021/09/27 19:15:53;;;;;;;75.97;46.45;;;;;;;17.89;96.19;100411.26;2954204;79;21027;-62
2021/09/27 19:19:55;;;;;;;76.75;50.28;;;;;;;17.74;96.15;100405.74;2954273;80;20983;-62
2021/09/27 19:23:58;;;;;;;78.70;50.40;;;;;;;17.63;97.53;100407.42;2963928;79;20968;-63
2021/09/27 19:28:01;;;;;;;77.90;50.73;;;;;;;17.49;98.62;100407.60;2960477;79;21019;-61
2021/09/27 19:32:04;;;;;;;77.72;50.08;;;;;;;17.39;99.39;100401.05;2925342;81;20980;-62
2021/09/27 19:36:15;;;;;;;72.85;49.00;;;;;;;17.35;100.00;100401.05;2930978;79;20984;-62
2021/09/27 19:40:17;;;;;;;73.07;48.58;;;;;;;17.32;100.00;100402.22;2965684;77;20972;-62
2021/09/27 19:44:47;;;;;;;71.65;48.78;;;;;;;17.45;100.00;100408.95;2926621;79;20964;-63
2021/09/27 19:48:48;;;;;;;71.33;48.33;;;;;;;17.52;100.00;100405.91;2919054;81;20972;-65
2021/09/27 19:56:58;;;;;;;81.12;52.38;;;;;;;17.71;99.89;100400.70;2954971;78;21137;-69
2021/09/27 20:01:03;;;;;;;68.80;46.80;;;;;;;17.78;99.71;100397.66;2937216;78;21007;-68
2021/09/27 20:05:05;;;;;;;81.57;50.78;;;;;;;17.73;98.99;100405.89;2955810;80;21030;-68
2021/09/27 20:09:07;;;;;;;86.47;51.85;;;;;;;17.67;99.76;100405.58;2958986;80;20994;-69
2021/09/27 20:13:09;;;;;;;75.32;46.98;;;;;;;17.73;99.94;100410.78;2972558;80;21049;-68
2021/09/27 20:17:17;;;;;;;77.90;49.27;;;;;;;17.68;98.72;100418.50;2973576;80;21061;-68
2021/09/27 20:21:18;;;;;;;71.60;49.10;;;;;;;17.63;99.39;100419.52;2973681;80;21021;-68
2021/09/27 20:25:22;;;;;;;70.03;44.08;;;;;;;17.71;99.48;100420.88;2973402;80;21033;-68
2021/09/27 20:29:23;;;;;;;64.65;46.88;;;;;;;17.80;98.25;100423.88;2972377;79;21002;-68
2021/09/27 20:33:28;;;;;;;73.75;48.73;;;;;;;17.82;97.46;100427.77;2968437;80;21042;-68
2021/09/27 20:37:30;;;;;;;75.62;45.40;;;;;;;17.89;97.29;100436.00;2959449;80;21056;-68
2021/09/27 20:41:31;;;;;;;71.47;48.00;;;;;;;17.90;96.10;100430.95;2973682;80;21072;-68
2021/09/27 20:45:33;;;;;;;72.35;47.38;;;;;;;17.85;95.94;100440.34;2954637;80;20994;-69
2021/09/27 20:49:35;;;;;;;62.65;45.92;;;;;;;17.86;96.53;100446.59;2973631;80;20986;-69
2021/09/27 20:53:38;;;;;;;80.97;49.83;;;;;;;17.95;96.41;100440.69;2971243;80;21042;-69
2021/09/27 20:57:41;;;;;;;71.97;48.73;;;;;;;17.96;95.85;100450.44;2942049;80;21002;-69
2021/09/27 21:01:44;;;;;;;75.80;50.38;;;;;;;17.98;95.84;100441.69;2901597;82;20982;-69
2021/09/27 21:05:46;;;;;;;79.67;49.83;;;;;;;17.96;95.72;100442.37;2901166;80;21045;-69
2021/09/27 21:09:48;;;;;;;77.65;49.38;;;;;;;17.93;96.08;100448.09;2901636;82;21034;-69
2021/09/27 21:13:50;;;;;;;76.72;46.18;;;;;;;17.93;96.17;100457.52;2901672;80;20978;-69
2021/09/27 21:17:53;;;;;;;73.10;49.58;;;;;;;17.94;96.39;100460.54;2901921;82;20978;-69
2021/09/27 21:21:55;;;;;;;72.67;48.63;;;;;;;18.00;95.94;100458.50;2902054;82;20959;-69
2021/09/27 21:25:57;;;;;;;81.78;50.28;;;;;;;18.03;95.64;100458.19;2906178;80;20994;-69
2021/09/27 21:29:59;;;;;;;65.90;46.48;;;;;;;18.02;95.20;100458.38;2911754;80;20970;-69
2021/09/27 21:34:00;;;;;;;76.22;49.00;;;;;;;17.99;95.20;100455.48;2902281;80;21018;-69
2021/09/27 21:38:03;;;;;;;78.15;49.75;;;;;;;17.97;95.10;100458.33;2901974;82;20943;-69
2021/09/27 21:42:06;;;;;;;82.30;49.27;;;;;;;17.88;94.78;100453.98;2901360;82;21049;-70
2021/09/27 21:46:09;;;;;;;73.78;49.73;;;;;;;17.82;94.47;100456.84;2913871;80;21037;-69
2021/09/27 21:50:19;;;;;;;74.25;47.05;;;;;;;17.69;94.71;100459.22;2923885;80;20990;-69
2021/09/27 21:54:22;;;;;;;82.62;50.17;;;;;;;17.60;94.93;100465.59;2917430;80;21018;-69
2021/09/27 21:58:29;;;;;;;75.67;52.17;;;;;;;17.64;94.92;100462.89;2921729;81;21026;-69
2021/09/27 22:02:43;;;;;;;74.77;51.15;;;;;;;17.64;94.57;100470.96;2927525;80;21383;-70
2021/09/27 22:06:47;;;;;;;78.42;48.83;;;;;;;17.45;95.06;100471.63;2921913;80;20971;-69
2021/09/27 22:10:55;;;;;;;77.53;47.80;;;;;;;17.30;95.33;100471.96;2961464;80;20954;-69
2021/09/27 22:14:57;;;;;;;77.55;49.90;;;;;;;17.19;95.83;100480.66;2920726;81;20983;-69
2021/09/27 22:19:00;;;;;;;75.62;50.67;;;;;;;17.08;95.76;100480.95;2943046;80;20919;-69
2021/09/27 22:23:04;;;;;;;73.65;48.28;;;;;;;17.04;96.21;100476.92;2964059;80;21034;-69
2021/09/27 22:27:09;;;;;;;74.07;48.70;;;;;;;16.88;95.86;100483.89;2955037;80;20989;-70
2021/09/27 22:31:11;;;;;;;71.20;46.65;;;;;;;16.62;96.16;100484.80;2955329;80;20985;-69
2021/09/27 22:35:13;;;;;;;74.37;49.53;;;;;;;16.61;97.72;100511.83;2954999;80;20989;-70
2021/09/27 22:39:16;;;;;;;77.00;49.13;;;;;;;16.58;98.56;100501.38;2968178;80;21032;-69
2021/09/27 22:43:19;;;;;;;71.02;48.58;;;;;;;16.66;98.33;100510.33;2956231;80;21068;-69
2021/09/27 22:47:21;;;;;;;75.70;50.58;;;;;;;16.74;98.32;100503.33;2956474;80;21319;-69
2021/09/27 22:51:23;;;;;;;81.97;50.12;;;;;;;16.81;98.59;100504.36;2941222;80;21010;-69
2021/09/27 22:55:26;;;;;;;79.12;51.02;;;;;;;16.89;98.57;100503.03;2941423;80;21026;-69
2021/09/27 22:59:31;;;;;;;80.22;50.05;;;;;;;17.01;98.70;100496.92;2936890;80;21065;-69
2021/09/27 23:03:35;;;;;;;74.32;49.53;;;;;;;17.15;98.02;100492.75;2937817;80;21029;-69
2021/09/27 23:07:39;;;;;;;77.82;47.17;;;;;;;17.25;97.45;100497.98;2957565;80;21011;-69
2021/09/27 23:11:42;;;;;;;77.65;46.02;;;;;;;17.32;96.01;100488.77;2956001;80;21007;-69
2021/09/27 23:15:43;;;;;;;73.57;46.68;;;;;;;17.34;95.55;100502.88;2963356;80;20991;-69
2021/09/27 23:19:45;;;;;;;82.47;48.73;;;;;;;17.30;94.81;100505.56;2953924;80;20977;-69
2021/09/27 23:23:49;;;;;;;72.47;50.00;;;;;;;17.20;94.49;100499.81;2945366;80;20981;-69
2021/09/27 23:27:52;;;;;;;78.92;48.23;;;;;;;17.11;95.32;100515.08;2957132;80;21010;-69
2021/09/27 23:31:54;;;;;;;74.75;49.83;;;;;;;17.06;95.26;100511.19;2953411;80;21022;-70
2021/09/27 23:35:56;;;;;;;92.25;53.02;;;;;;;16.94;95.56;100513.30;2955452;80;21581;-69
2021/09/27 23:39:58;;;;;;;87.75;53.13;;;;;;;16.78;95.97;100512.22;2959768;79;20991;-70